Time;durP1;ratioP1;P1;durP2;ratioP2;P2;SDS_P1;SDS_P2;PMS_P1;PMS_P2;Temp;Humidity;BMP_temperature;BMP_pressure;BME280_temperature;BME280_humidity;BME280_pressure;Samples;Min_cycle;Max_cycle;Signal;HPM_P1;HPM_P2
2022/07/12 00:01:51;;;;;;;5.43;3.05;;;;;;;18.63;48.67;100360.69;5070131;28;20089;-28
2022/07/12 00:04:16;;;;;;;4.95;3.40;;;;;;;18.51;48.76;100360.09;5088767;28;20024;-32
2022/07/12 00:06:42;;;;;;;5.63;2.80;;;;;;;18.28;49.06;100345.97;5088434;28;20032;-30
2022/07/12 00:09:07;;;;;;;7.22;3.20;;;;;;;18.39;48.62;100365.75;5088683;28;20032;-32
2022/07/12 00:11:35;;;;;;;6.45;3.15;;;;;;;18.56;49.17;100368.22;5069667;28;20032;-28
2022/07/12 00:14:00;;;;;;;5.15;2.70;;;;;;;18.41;48.81;100367.09;5070020;28;20036;-28
2022/07/12 00:16:26;;;;;;;5.18;3.00;;;;;;;18.32;48.79;100354.34;5069841;28;20040;-28
2022/07/12 00:18:51;;;;;;;5.25;3.05;;;;;;;18.39;48.98;100344.94;5088778;28;20134;-30
2022/07/12 00:21:17;;;;;;;3.38;3.00;;;;;;;18.27;50.05;100360.56;5088482;28;20485;-28
2022/07/12 00:23:42;;;;;;;5.05;3.20;;;;;;;18.31;50.29;100360.81;5087887;28;20023;-27
2022/07/12 00:26:08;;;;;;;4.35;3.33;;;;;;;18.23;50.78;100362.97;5070052;28;20032;-27
2022/07/12 00:28:33;;;;;;;4.53;2.97;;;;;;;18.02;50.91;100366.59;5087005;28;20024;-28
2022/07/12 00:30:59;;;;;;;5.07;3.20;;;;;;;17.62;52.20;100366.06;5069849;28;20032;-27
2022/07/12 00:33:25;;;;;;;4.13;2.75;;;;;;;17.72;51.49;100369.91;5088046;28;20020;-31
2022/07/12 00:35:51;;;;;;;3.60;2.75;;;;;;;17.61;52.51;100369.84;5088308;28;20038;-31
2022/07/12 00:38:17;;;;;;;6.15;2.65;;;;;;;17.37;52.61;100363.16;5069713;28;20537;-33
2022/07/12 00:40:43;;;;;;;6.07;3.30;;;;;;;17.66;51.55;100372.56;5069464;28;20058;-27
2022/07/12 00:43:08;;;;;;;4.35;3.10;;;;;;;17.91;50.82;100378.44;5069449;28;20020;-29
2022/07/12 00:45:33;;;;;;;4.40;2.90;;;;;;;17.77;51.55;100372.63;5087253;28;20032;-28
2022/07/12 00:47:59;;;;;;;3.63;2.47;;;;;;;17.51;52.32;100374.31;5087791;28;20092;-29
2022/07/12 00:50:25;;;;;;;5.93;2.95;;;;;;;17.54;52.29;100368.41;5087444;28;20082;-34
2022/07/12 00:52:54;;;;;;;4.50;2.70;;;;;;;17.34;52.65;100385.22;5087961;28;20029;-30
2022/07/12 00:55:20;;;;;;;4.15;2.95;;;;;;;17.36;52.37;100381.19;5069112;28;20032;-27
2022/07/12 00:57:47;;;;;;;4.93;2.22;;;;;;;17.54;51.73;100384.59;5069355;28;20024;-28
2022/07/12 01:00:33;;;;;;;6.18;3.20;;;;;;;17.40;52.80;100379.63;5069467;28;20035;-27
2022/07/12 01:03:01;;;;;;;4.32;3.08;;;;;;;17.23;53.25;100363.56;5086899;28;20058;-27
2022/07/12 01:05:28;;;;;;;4.18;3.08;;;;;;;17.24;53.11;100364.38;5087611;28;20044;-32
2022/07/12 01:07:54;;;;;;;4.40;2.90;;;;;;;17.43;53.01;100378.31;5069007;28;20480;-26
2022/07/12 01:10:20;;;;;;;3.60;2.90;;;;;;;17.33;53.10;100373.63;5087270;28;20059;-29
2022/07/12 01:12:45;;;;;;;4.10;3.00;;;;;;;17.22;53.27;100382.69;5087178;28;20087;-27
2022/07/12 01:15:12;;;;;;;5.72;3.20;;;;;;;17.40;52.58;100362.63;5087652;28;20032;-27
2022/07/12 01:17:38;;;;;;;4.70;2.88;;;;;;;17.39;53.20;100383.41;5068902;28;20031;-31
2022/07/12 01:20:06;;;;;;;6.28;3.13;;;;;;;17.31;52.49;100369.59;5087504;28;20393;-27
2022/07/12 01:22:36;;;;;;;4.68;3.03;;;;;;;17.16;53.47;100379.16;5068877;28;20620;-27
2022/07/12 01:25:04;;;;;;;4.40;2.92;;;;;;;17.40;52.44;100376.91;5068826;28;20477;-32
2022/07/12 01:27:30;;;;;;;4.03;3.20;;;;;;;17.27;53.19;100372.78;5068741;28;20024;-27
2022/07/12 01:29:56;;;;;;;4.88;3.08;;;;;;;17.27;53.48;100391.63;5087254;28;20039;-27
2022/07/12 01:32:24;;;;;;;4.20;2.90;;;;;;;17.40;53.39;100385.00;5068603;28;20055;-29
2022/07/12 01:34:57;;;;;;;4.65;2.75;;;;;;;17.37;53.68;100390.13;5087349;28;20063;-28
2022/07/12 01:37:24;;;;;;;5.80;3.22;;;;;;;17.36;53.65;100388.47;5086937;28;20482;-32
2022/07/12 01:39:54;;;;;;;4.33;3.20;;;;;;;17.15;54.63;100399.06;5086551;28;20126;-27
2022/07/12 01:42:21;;;;;;;4.15;3.00;;;;;;;17.25;54.83;100391.09;5068488;28;20744;-28
2022/07/12 01:44:49;;;;;;;3.42;2.92;;;;;;;17.21;54.32;100392.66;5068654;28;20035;-27
2022/07/12 01:47:15;;;;;;;5.65;2.95;;;;;;;17.32;53.93;100382.78;5086968;28;20039;-27
2022/07/12 01:49:40;;;;;;;4.85;2.78;;;;;;;17.16;54.41;100384.53;5086995;28;20020;-27
2022/07/12 01:52:06;;;;;;;5.30;3.28;;;;;;;17.12;54.78;100388.81;5086846;28;20456;-27
2022/07/12 01:54:32;;;;;;;4.88;3.13;;;;;;;17.36;53.97;100393.88;5068529;28;20028;-27
2022/07/12 01:56:58;;;;;;;4.00;2.95;;;;;;;17.13;54.50;100379.66;5068863;28;20138;-32
2022/07/12 01:59:24;;;;;;;5.45;3.10;;;;;;;17.05;54.85;100394.38;5087225;28;20102;-27
2022/07/12 02:01:49;;;;;;;5.85;3.28;;;;;;;16.83;55.79;100394.41;5086738;28;20420;-30
2022/07/12 02:04:18;;;;;;;5.25;3.15;;;;;;;16.57;56.03;100371.75;5086905;28;20016;-27
2022/07/12 02:06:44;;;;;;;3.53;2.90;;;;;;;16.58;56.17;100394.09;5068376;28;20032;-27
2022/07/12 02:09:11;;;;;;;6.30;3.13;;;;;;;16.51;56.38;100377.31;5068751;28;20118;-29
2022/07/12 02:11:37;;;;;;;4.70;3.35;;;;;;;16.61;55.84;100382.81;5068246;28;20024;-27
2022/07/12 02:14:02;;;;;;;4.32;3.30;;;;;;;16.61;55.58;100386.34;5086994;28;20030;-27
2022/07/12 02:16:28;;;;;;;5.38;2.88;;;;;;;16.53;55.38;100365.25;5086635;28;20036;-26
2022/07/12 02:18:53;;;;;;;4.43;2.80;;;;;;;16.54;55.98;100387.59;5086980;28;20035;-31
2022/07/12 02:21:18;;;;;;;6.28;3.35;;;;;;;16.75;54.88;100389.44;5086238;28;20036;-31
2022/07/12 02:23:44;;;;;;;5.00;3.10;;;;;;;16.23;56.79;100387.19;5068183;28;20028;-28
2022/07/12 02:26:09;;;;;;;3.85;3.08;;;;;;;16.25;56.97;100385.06;5086676;28;20130;-28
2022/07/12 02:28:35;;;;;;;5.47;3.25;;;;;;;16.36;55.96;100392.19;5086835;28;20027;-30
2022/07/12 02:31:00;;;;;;;4.40;3.13;;;;;;;15.92;57.35;100397.50;5068429;28;20026;-27
2022/07/12 02:33:26;;;;;;;3.72;3.05;;;;;;;16.05;57.27;100391.78;5067917;28;20016;-28
2022/07/12 02:35:51;;;;;;;4.13;3.13;;;;;;;15.97;57.66;100402.16;5086528;28;20034;-31
2022/07/12 02:38:17;;;;;;;4.22;3.00;;;;;;;15.71;58.36;100411.66;5067997;28;20020;-28
2022/07/12 02:40:54;;;;;;;5.78;3.40;;;;;;;15.49;59.27;100398.94;5086480;28;20403;-27
2022/07/12 02:43:26;;;;;;;4.40;3.50;;;;;;;15.80;59.23;100410.22;5086517;28;20113;-27
2022/07/12 02:45:52;;;;;;;6.72;3.35;;;;;;;15.96;58.59;100398.66;5086502;28;20032;-27
2022/07/12 02:48:19;;;;;;;5.13;3.50;;;;;;;16.25;57.53;100401.22;5067930;28;20039;-27
2022/07/12 02:50:44;;;;;;;5.60;3.20;;;;;;;16.21;55.54;100379.34;5068366;28;20040;-31
2022/07/12 02:53:10;;;;;;;3.85;3.20;;;;;;;16.37;55.36;100391.16;5071657;28;20597;-26
2022/07/12 02:55:37;;;;;;;7.63;3.83;;;;;;;16.34;55.65;100393.50;5071626;28;20043;-28
2022/07/12 02:58:05;;;;;;;5.32;3.40;;;;;;;16.19;55.67;100403.00;5071717;28;20031;-27
2022/07/12 03:00:31;;;;;;;;;;;;;;;16.35;55.95;100406.72;5090412;28;20028;-30
2022/07/12 03:02:56;;;;;;;4.88;3.42;;;;;;;16.51;54.21;100415.81;5089900;28;20618;-31
2022/07/12 03:05:22;;;;;;;4.55;3.40;;;;;;;16.13;55.44;100397.81;5089649;28;20024;-29
2022/07/12 03:07:47;;;;;;;4.93;3.15;;;;;;;16.24;55.93;100413.84;5089878;28;20039;-27
2022/07/12 03:10:13;;;;;;;4.82;3.30;;;;;;;16.14;56.17;100410.19;5075179;28;20033;-26
2022/07/12 03:12:38;;;;;;;5.05;3.22;;;;;;;16.33;54.79;100398.09;5069479;28;20064;-27
2022/07/12 03:15:05;;;;;;;5.95;3.45;;;;;;;16.38;55.71;100411.59;5069699;28;20405;-27
2022/07/12 03:17:32;;;;;;;4.90;3.67;;;;;;;16.31;56.10;100410.97;5068105;28;20024;-31
2022/07/12 03:19:57;;;;;;;4.85;3.47;;;;;;;16.31;55.93;100421.75;5051389;28;20024;-28
2022/07/12 03:22:23;;;;;;;6.38;3.88;;;;;;;16.33;55.47;100419.63;5069676;28;20037;-27
2022/07/12 03:24:49;;;;;;;7.93;3.40;;;;;;;15.99;55.99;100400.84;5069534;28;20071;-27
2022/07/12 03:27:15;;;;;;;3.50;3.03;;;;;;;16.06;56.75;100414.94;5068067;28;20038;-26
2022/07/12 03:29:40;;;;;;;4.78;3.22;;;;;;;16.13;55.14;100397.81;5069166;28;20025;-31
2022/07/12 03:32:06;;;;;;;8.45;3.75;;;;;;;16.21;55.58;100413.53;5067623;28;20039;-27
2022/07/12 03:34:32;;;;;;;4.47;3.00;;;;;;;16.25;54.05;100406.59;5051265;28;20517;-28
2022/07/12 03:36:58;;;;;;;4.45;3.30;;;;;;;16.30;54.79;100421.97;5051265;28;20514;-27
2022/07/12 03:39:24;;;;;;;5.03;3.30;;;;;;;16.13;55.02;100408.56;5050926;28;20115;-28
2022/07/12 03:41:50;;;;;;;5.82;3.10;;;;;;;16.26;54.81;100424.34;5050860;28;20131;-27
2022/07/12 03:44:17;;;;;;;4.72;3.33;;;;;;;16.26;54.57;100413.59;5068790;28;20052;-28
2022/07/12 03:46:42;;;;;;;6.47;3.30;;;;;;;16.06;55.36;100414.94;5068744;28;20420;-27
2022/07/12 03:49:08;;;;;;;5.40;3.50;;;;;;;16.02;55.64;100413.00;5067453;28;20036;-28
2022/07/12 03:51:33;;;;;;;9.38;4.00;;;;;;;16.13;55.68;100424.72;5068783;28;20082;-30
2022/07/12 03:53:59;;;;;;;7.03;3.45;;;;;;;16.06;56.42;100406.88;5068763;28;20426;-27
2022/07/12 03:59:08;;;;;;;5.43;3.50;;;;;;;16.35;54.78;100433.66;5068561;28;20039;-31
2022/07/12 04:01:34;;;;;;;4.85;3.00;;;;;;;16.35;54.19;100409.41;5068586;28;20474;-28
2022/07/12 04:04:00;;;;;;;5.97;3.13;;;;;;;16.45;54.68;100411.44;5069007;28;20032;-27
2022/07/12 04:06:25;;;;;;;4.60;3.22;;;;;;;16.37;54.61;100411.88;5068909;28;20024;-30
2022/07/12 04:08:50;;;;;;;5.82;3.45;;;;;;;16.25;55.73;100422.72;5069015;28;20432;-27
2022/07/12 04:11:16;;;;;;;4.95;3.38;;;;;;;16.30;55.40;100425.47;5068590;28;20030;-32
2022/07/12 04:13:42;;;;;;;5.95;3.90;;;;;;;16.40;55.45;100436.38;5066575;28;20032;-28
2022/07/12 04:16:07;;;;;;;6.40;3.50;;;;;;;16.46;55.36;100446.16;5068357;28;20431;-30
2022/07/12 04:18:33;;;;;;;7.75;3.55;;;;;;;16.50;55.82;100438.41;5068114;28;20025;-28
2022/07/12 04:20:58;;;;;;;4.97;3.38;;;;;;;16.63;55.94;100448.00;5066795;28;20031;-27
2022/07/12 04:23:24;;;;;;;10.65;3.50;;;;;;;16.89;55.36;100446.47;5068125;28;20032;-27
2022/07/12 04:25:51;;;;;;;4.82;3.65;;;;;;;16.61;55.96;100428.59;5068080;28;20031;-27
2022/07/12 04:28:16;;;;;;;7.75;3.92;;;;;;;16.92;55.83;100451.38;5049985;28;20033;-30
2022/07/12 04:30:44;;;;;;;7.60;3.67;;;;;;;17.10;56.03;100439.44;5068022;28;20396;-32
2022/07/12 04:33:10;;;;;;;4.43;3.30;;;;;;;17.42;55.06;100444.06;5066774;28;20036;-27
2022/07/12 04:35:36;;;;;;;5.85;3.22;;;;;;;17.40;54.91;100448.91;5049764;28;20063;-28
2022/07/12 04:38:01;;;;;;;8.13;3.70;;;;;;;17.60;53.72;100449.09;5066397;28;20064;-28
2022/07/12 04:40:27;;;;;;;8.02;3.63;;;;;;;17.52;53.62;100444.16;5068293;28;20089;-29
2022/07/12 04:42:53;;;;;;;8.63;3.38;;;;;;;17.53;54.82;100450.38;5067415;28;20059;-29
2022/07/12 04:45:18;;;;;;;9.55;4.03;;;;;;;17.50;54.90;100459.78;5067540;28;20389;-30
2022/07/12 04:47:44;;;;;;;6.90;3.42;;;;;;;17.40;54.13;100438.13;5067593;28;20412;-27
2022/07/12 04:50:09;;;;;;;6.90;3.50;;;;;;;17.74;53.20;100464.88;5049799;28;20055;-29
2022/07/12 04:52:35;;;;;;;8.73;3.33;;;;;;;17.78;53.58;100444.41;5067657;28;20020;-27
2022/07/12 04:55:01;;;;;;;3.92;2.85;;;;;;;17.78;52.36;100456.00;5067740;28;20024;-27
2022/07/12 04:57:26;;;;;;;7.18;3.17;;;;;;;17.76;53.61;100457.34;5067282;28;20099;-27
2022/07/12 04:59:52;;;;;;;4.47;3.05;;;;;;;17.97;52.91;100436.75;5067193;28;20519;-27
2022/07/12 05:02:17;;;;;;;8.45;3.40;;;;;;;18.28;52.20;100457.47;5067858;28;20405;-31
2022/07/12 05:04:43;;;;;;;6.85;3.10;;;;;;;18.04;51.93;100434.63;5067514;28;20556;-29
2022/07/12 05:07:08;;;;;;;5.45;3.63;;;;;;;18.33;52.02;100440.50;5067577;28;20454;-27
2022/07/12 05:09:34;;;;;;;4.63;2.97;;;;;;;18.47;52.04;100438.16;5067177;28;20056;-28
2022/07/12 05:11:59;;;;;;;6.20;2.92;;;;;;;18.66;52.06;100450.13;5067585;28;20132;-31
2022/07/12 05:14:25;;;;;;;4.40;3.00;;;;;;;18.72;51.80;100458.25;5048629;28;20033;-26
2022/07/12 05:16:50;;;;;;;4.72;2.90;;;;;;;18.94;51.58;100452.69;5067371;28;20178;-26
2022/07/12 05:19:16;;;;;;;6.53;3.00;;;;;;;19.45;50.70;100466.31;5067315;28;20021;-27
2022/07/12 05:21:42;;;;;;;5.70;3.55;;;;;;;19.24;48.71;100463.56;5065442;28;20032;-29
2022/07/12 05:24:08;;;;;;;4.20;2.50;;;;;;;19.11;50.16;100458.69;5067139;28;20025;-29
2022/07/12 05:26:34;;;;;;;3.45;2.20;;;;;;;19.20;48.69;100462.50;5048708;28;20060;-28
2022/07/12 05:28:59;;;;;;;6.28;2.85;;;;;;;19.36;49.54;100462.53;5048859;28;20518;-29
2022/07/12 05:31:25;;;;;;;2.95;2.05;;;;;;;19.65;48.72;100466.34;5067278;28;20032;-27
2022/07/12 05:33:50;;;;;;;4.93;2.40;;;;;;;19.71;47.98;100464.50;5067276;28;20149;-28
2022/07/12 05:36:16;;;;;;;4.55;2.20;;;;;;;19.82;47.34;100468.84;5049036;28;20025;-32
2022/07/12 05:38:41;;;;;;;6.22;3.08;;;;;;;19.61;45.49;100454.44;5067211;28;20554;-27
2022/07/12 05:41:07;;;;;;;4.95;2.30;;;;;;;19.45;45.90;100460.91;5066674;28;20045;-27
2022/07/12 05:43:32;;;;;;;2.92;2.10;;;;;;;19.57;45.37;100475.00;5066577;28;20048;-27
2022/07/12 05:45:58;;;;;;;2.67;2.10;;;;;;;19.53;45.80;100463.09;5067116;28;20116;-27
2022/07/12 05:48:23;;;;;;;3.08;1.98;;;;;;;19.51;45.26;100467.97;5067255;28;20088;-30
2022/07/12 05:50:49;;;;;;;5.13;2.10;;;;;;;19.44;45.24;100470.13;5067222;28;20025;-32
2022/07/12 05:53:24;;;;;;;3.80;1.90;;;;;;;19.65;44.60;100471.75;5066995;28;20032;-26
2022/07/12 05:55:51;;;;;;;2.88;1.88;;;;;;;19.80;44.75;100464.78;5065481;28;20033;-31
2022/07/12 05:58:17;;;;;;;3.00;1.97;;;;;;;19.70;43.86;100467.47;5048577;28;20036;-29
2022/07/12 06:00:43;;;;;;;5.32;2.38;;;;;;;19.61;42.87;100465.25;5049009;28;20043;-27
2022/07/12 06:03:08;;;;;;;4.88;2.10;;;;;;;19.55;43.21;100460.13;5066677;28;20032;-28
2022/07/12 06:05:34;;;;;;;3.83;1.80;;;;;;;19.56;43.34;100451.75;5066631;28;20113;-29
2022/07/12 06:07:59;;;;;;;5.85;2.35;;;;;;;19.77;42.44;100468.03;5032018;28;20090;-27
2022/07/12 06:10:25;;;;;;;5.35;2.10;;;;;;;19.73;42.47;100467.75;5066435;28;20416;-33
2022/07/12 06:12:50;;;;;;;4.18;1.90;;;;;;;19.55;43.15;100444.69;5066764;28;20059;-30
2022/07/12 06:15:16;;;;;;;3.78;1.75;;;;;;;19.51;42.51;100451.72;5066657;28;20020;-32
2022/07/12 06:17:41;;;;;;;3.70;1.50;;;;;;;19.47;42.80;100456.88;5048541;28;20519;-28
2022/07/12 06:20:07;;;;;;;4.60;2.35;;;;;;;19.66;42.80;100445.53;5066597;28;20104;-27
2022/07/12 06:22:33;;;;;;;2.03;1.60;;;;;;;19.92;42.53;100473.44;5048650;28;20020;-29
2022/07/12 06:24:58;;;;;;;3.17;1.80;;;;;;;19.85;42.84;100449.34;5048621;28;20040;-27
2022/07/12 06:27:24;;;;;;;3.45;1.98;;;;;;;19.90;43.10;100448.56;5068999;28;20024;-32
2022/07/12 06:29:50;;;;;;;3.83;2.20;;;;;;;20.11;43.75;100456.66;5070733;28;20029;-32
2022/07/12 06:32:17;;;;;;;4.35;1.98;;;;;;;20.18;43.07;100455.25;5052087;28;20032;-34
2022/07/12 06:34:43;;;;;;;7.25;2.22;;;;;;;20.28;43.25;100457.94;5069223;28;20032;-27
2022/07/12 06:37:08;;;;;;;3.47;1.80;;;;;;;20.54;42.86;100459.81;5069793;28;20689;-29
2022/07/12 06:39:37;;;;;;;7.00;2.05;;;;;;;20.50;42.15;100442.47;5068412;28;20035;-30
2022/07/12 06:42:03;;;;;;;4.00;1.80;;;;;;;20.42;41.75;100439.25;5068190;28;20567;-27
2022/07/12 06:44:32;;;;;;;3.42;2.13;;;;;;;20.54;41.82;100440.84;5051793;28;20028;-27
2022/07/12 06:46:59;;;;;;;4.50;1.70;;;;;;;20.50;41.94;100434.34;5069998;28;20028;-27
2022/07/12 06:49:25;;;;;;;3.50;1.80;;;;;;;21.07;41.37;100446.59;5051385;28;20106;-28
2022/07/12 06:51:50;;;;;;;3.67;1.80;;;;;;;21.28;40.88;100442.66;5069853;28;20067;-27
2022/07/12 06:54:16;;;;;;;4.95;1.58;;;;;;;21.51;40.44;100443.06;5069738;28;20031;-32
2022/07/12 06:56:41;;;;;;;3.03;1.70;;;;;;;21.63;40.22;100427.25;5068614;28;20041;-31
2022/07/12 06:59:10;;;;;;;3.00;1.60;;;;;;;21.98;40.58;100444.31;5069782;28;20020;-27
2022/07/12 07:01:36;;;;;;;4.05;1.60;;;;;;;21.91;39.44;100424.84;5069444;28;20420;-28
2022/07/12 07:04:02;;;;;;;4.75;1.63;;;;;;;21.83;39.13;100447.19;5051480;28;20035;-29
2022/07/12 07:06:28;;;;;;;2.50;1.38;;;;;;;22.04;39.26;100450.50;5051513;28;20522;-32
2022/07/12 07:08:54;;;;;;;3.80;1.42;;;;;;;22.22;37.98;100449.00;5069405;28;20024;-28
2022/07/12 07:11:19;;;;;;;4.57;1.70;;;;;;;22.40;38.03;100440.13;5069443;28;20452;-29
2022/07/12 07:13:45;;;;;;;5.22;1.63;;;;;;;22.48;37.36;100441.41;5069529;28;20031;-27
2022/07/12 07:16:10;;;;;;;3.70;1.75;;;;;;;22.22;38.19;100429.97;5069388;28;20024;-28
2022/07/12 07:18:35;;;;;;;4.30;1.70;;;;;;;22.45;37.26;100431.94;5069324;28;20043;-28
2022/07/12 07:21:01;;;;;;;3.45;1.48;;;;;;;22.79;37.47;100451.91;5069188;28;20115;-32
2022/07/12 07:23:26;;;;;;;3.67;1.40;;;;;;;22.89;36.44;100440.09;5068801;28;20158;-29
2022/07/12 07:25:52;;;;;;;1.80;1.20;;;;;;;23.03;36.89;100446.47;5067858;28;20413;-28
2022/07/12 07:28:17;;;;;;;3.00;1.60;;;;;;;22.73;36.93;100443.00;5068049;28;20070;-30
2022/07/12 07:30:52;;;;;;;3.63;1.50;;;;;;;22.81;37.09;100439.63;5069540;28;20115;-28
2022/07/12 07:33:24;;;;;;;2.85;1.67;;;;;;;22.95;37.14;100434.28;5050987;28;20036;-31
2022/07/12 07:35:51;;;;;;;4.72;1.75;;;;;;;23.00;36.15;100441.56;5051117;28;20033;-28
2022/07/12 07:38:17;;;;;;;4.45;1.48;;;;;;;22.98;35.93;100432.91;5067178;28;20047;-28
2022/07/12 07:40:43;;;;;;;5.75;1.70;;;;;;;23.20;37.31;100445.97;5067567;28;20106;-28
2022/07/12 07:43:09;;;;;;;5.05;1.77;;;;;;;23.26;36.27;100445.59;5069023;28;20044;-29
2022/07/12 07:45:34;;;;;;;3.25;1.60;;;;;;;23.26;36.99;100439.34;5068714;28;20033;-28
2022/07/12 07:47:59;;;;;;;9.55;2.13;;;;;;;23.53;36.95;100449.53;5069195;28;20122;-28
2022/07/12 07:50:25;;;;;;;4.90;1.58;;;;;;;23.34;36.81;100435.16;5067518;28;20115;-31
2022/07/12 07:52:51;;;;;;;3.72;1.42;;;;;;;23.54;35.70;100428.56;5050645;28;20031;-28
2022/07/12 07:55:17;;;;;;;4.40;1.60;;;;;;;23.47;35.00;100445.28;5068850;28;20032;-32
2022/07/12 07:57:43;;;;;;;4.50;2.03;;;;;;;23.55;35.64;100436.44;5050292;28;20123;-28
2022/07/12 08:00:09;;;;;;;3.13;1.38;;;;;;;23.83;35.02;100436.56;5068670;28;20848;-28
2022/07/12 08:02:35;;;;;;;3.60;1.80;;;;;;;23.93;34.41;100433.66;5050481;28;20032;-29
2022/07/12 08:05:00;;;;;;;4.95;1.73;;;;;;;24.18;35.86;100442.47;5068137;28;20028;-34
2022/07/12 08:07:26;;;;;;;4.13;1.38;;;;;;;24.29;33.91;100449.34;5068157;28;20020;-27
2022/07/12 08:09:51;;;;;;;2.03;1.20;;;;;;;24.01;33.32;100448.53;5068687;28;20056;-28
2022/07/12 08:12:17;;;;;;;4.35;1.40;;;;;;;24.19;34.47;100436.75;5068341;28;20028;-34
2022/07/12 08:14:42;;;;;;;2.78;1.40;;;;;;;24.04;33.59;100443.25;5066702;28;20039;-28
2022/07/12 08:17:08;;;;;;;3.17;1.30;;;;;;;24.31;33.15;100428.06;5068453;28;20035;-30
2022/07/12 08:19:33;;;;;;;3.35;1.40;;;;;;;24.32;32.52;100416.06;5066805;28;20028;-29
2022/07/12 08:21:59;;;;;;;3.25;1.33;;;;;;;24.34;31.81;100427.47;5049592;28;20115;-28
2022/07/12 08:24:24;;;;;;;3.38;1.30;;;;;;;24.20;32.02;100437.53;5068321;28;20056;-27
2022/07/12 08:26:50;;;;;;;1.73;1.13;;;;;;;24.20;33.60;100434.81;5067963;28;20055;-29
2022/07/12 08:29:15;;;;;;;5.15;1.50;;;;;;;24.11;32.64;100426.53;5068244;28;20040;-27
2022/07/12 08:31:41;;;;;;;3.47;1.30;;;;;;;24.43;34.44;100412.00;5067747;28;20064;-30
2022/07/12 08:34:06;;;;;;;3.05;1.20;;;;;;;25.03;32.69;100421.97;5049733;28;20127;-30
2022/07/12 08:36:32;;;;;;;3.15;1.20;;;;;;;25.20;32.78;100423.22;5067790;28;20028;-30
2022/07/12 08:38:57;;;;;;;4.45;1.40;;;;;;;25.25;30.71;100426.69;5067744;28;20404;-30
2022/07/12 08:41:22;;;;;;;4.43;1.40;;;;;;;25.18;31.16;100407.16;5067594;28;20048;-32
2022/07/12 08:43:48;;;;;;;2.10;1.27;;;;;;;25.16;31.82;100401.19;5067633;28;20043;-29
2022/07/12 08:46:15;;;;;;;3.50;1.10;;;;;;;25.55;31.38;100407.94;5067528;28;20052;-31
2022/07/12 08:48:42;;;;;;;1.97;1.20;;;;;;;25.55;31.31;100407.13;5065483;28;20485;-31
2022/07/12 08:51:10;;;;;;;1.75;1.13;;;;;;;25.71;30.63;100405.63;5066080;28;20171;-31
2022/07/12 08:53:35;;;;;;;2.05;1.40;;;;;;;25.74;28.97;100402.25;5049082;28;20086;-30
2022/07/12 08:56:05;;;;;;;2.40;1.20;;;;;;;25.76;28.85;100396.50;5067719;28;20463;-33
2022/07/12 08:58:31;;;;;;;4.85;1.23;;;;;;;25.98;29.29;100384.75;5049245;28;20491;-27
2022/07/12 09:00:56;;;;;;;3.28;1.30;;;;;;;25.88;28.72;100372.13;5049498;28;20085;-30
2022/07/12 09:03:22;;;;;;;3.83;0.95;;;;;;;25.76;29.94;100366.44;5067097;28;20028;-29
2022/07/12 09:05:57;;;;;;;4.25;1.10;;;;;;;25.75;29.04;100401.16;5067686;28;20048;-33
2022/07/12 09:08:29;;;;;;;2.53;0.90;;;;;;;25.79;27.40;100402.16;5049614;28;20022;-28
2022/07/12 09:11:00;;;;;;;1.77;1.00;;;;;;;25.77;27.40;100398.13;5067351;28;20416;-28
2022/07/12 09:13:49;;;;;;;2.90;1.17;;;;;;;25.97;26.67;100397.63;5048959;28;20052;-28
2022/07/12 09:16:16;;;;;;;3.80;1.10;;;;;;;26.10;26.76;100370.50;5049441;28;20550;-27
2022/07/12 09:18:43;;;;;;;1.73;0.80;;;;;;;26.10;25.44;100389.63;5049156;28;20036;-29
2022/07/12 09:21:09;;;;;;;2.45;0.70;;;;;;;25.80;27.54;100386.56;5049144;28;20029;-28
2022/07/12 09:23:34;;;;;;;2.45;1.17;;;;;;;26.05;27.06;100374.16;5066989;28;20500;-29
2022/07/12 09:26:01;;;;;;;2.33;1.10;;;;;;;26.32;28.97;100359.47;5066864;28;20519;-28
2022/07/12 09:28:26;;;;;;;2.20;0.98;;;;;;;26.45;27.58;100364.00;5048589;28;20036;-30
2022/07/12 09:30:53;;;;;;;3.63;0.90;;;;;;;26.45;27.64;100369.47;5067196;28;20063;-29
2022/07/12 09:36:06;;;;;;;3.40;1.10;;;;;;;26.62;27.33;100366.00;5067159;28;20042;-35
2022/07/12 09:38:32;;;;;;;2.60;0.90;;;;;;;27.16;27.24;100371.16;5048742;28;20059;-33
2022/07/12 09:40:58;;;;;;;2.60;0.90;;;;;;;27.11;25.70;100362.31;5048243;28;20447;-28
2022/07/12 09:43:25;;;;;;;1.98;1.00;;;;;;;26.75;27.25;100366.97;5048617;28;20035;-28
2022/07/12 09:45:50;;;;;;;3.15;1.05;;;;;;;26.73;28.04;100347.34;5048700;28;20036;-29
2022/07/12 09:48:17;;;;;;;2.08;1.05;;;;;;;26.99;27.38;100354.75;5049184;28;20462;-28
2022/07/12 09:50:50;;;;;;;3.38;1.10;;;;;;;26.75;26.58;100334.16;5048650;28;20102;-28
2022/07/12 09:53:42;;;;;;;2.45;1.10;;;;;;;26.81;26.98;100337.53;5065365;28;20037;-30
2022/07/12 09:56:11;;;;;;;2.78;1.08;;;;;;;26.93;27.64;100351.38;5041835;28;20045;-32
2022/07/12 09:58:57;;;;;;;3.58;1.10;;;;;;;27.09;27.34;100362.63;5066797;28;20024;-28
2022/07/12 10:01:24;;;;;;;2.95;1.00;;;;;;;26.99;27.37;100344.63;5050940;28;20063;-28
2022/07/12 10:03:51;;;;;;;1.93;0.97;;;;;;;27.27;27.48;100338.00;5070455;28;20048;-33
2022/07/12 10:06:28;;;;;;;4.10;1.05;;;;;;;27.40;26.75;100340.56;5052740;28;20036;-28
2022/07/12 10:08:55;;;;;;;2.87;1.03;;;;;;;27.21;26.66;100360.03;5069175;28;20032;-28
2022/07/12 10:11:22;;;;;;;2.90;1.05;;;;;;;27.12;28.24;100348.31;5052012;28;20521;-28
2022/07/12 10:13:48;;;;;;;3.45;1.00;;;;;;;27.19;25.98;100345.06;5070577;28;20025;-30
2022/07/12 10:16:16;;;;;;;3.40;1.10;;;;;;;27.49;26.26;100340.53;5052150;28;20776;-32
2022/07/12 10:18:41;;;;;;;1.90;1.25;;;;;;;27.36;25.80;100325.09;5070868;28;20037;-30
2022/07/12 10:21:21;;;;;;;1.88;1.00;;;;;;;27.41;26.28;100319.47;5070263;28;20025;-29
2022/07/12 10:23:47;;;;;;;3.38;1.20;;;;;;;27.67;27.29;100337.78;5052694;28;20041;-28
2022/07/12 10:26:19;;;;;;;3.22;1.25;;;;;;;27.92;25.44;100325.13;5052039;28;20497;-32
2022/07/12 10:29:05;;;;;;;2.17;1.00;;;;;;;27.97;24.97;100344.09;5070113;28;20047;-29
2022/07/12 10:31:36;;;;;;;3.80;1.15;;;;;;;27.46;25.71;100311.06;5051997;28;20111;-30
2022/07/12 10:34:29;;;;;;;4.05;1.10;;;;;;;27.80;26.44;100323.03;5051925;28;20111;-31
2022/07/12 10:36:55;;;;;;;2.25;1.10;;;;;;;27.42;25.58;100329.28;5067672;28;20037;-28
2022/07/12 10:39:24;;;;;;;5.05;1.65;;;;;;;27.14;25.94;100320.63;5069861;28;20435;-28
2022/07/12 10:42:05;;;;;;;1.83;1.10;;;;;;;27.56;25.38;100316.19;5051284;28;20139;-28
2022/07/12 10:44:34;;;;;;;3.83;0.90;;;;;;;27.77;25.19;100316.28;5069637;28;20044;-31
2022/07/12 10:47:01;;;;;;;1.92;1.00;;;;;;;28.15;24.42;100307.25;5051523;28;20043;-29
2022/07/12 10:49:28;;;;;;;3.20;1.10;;;;;;;28.27;25.13;100309.28;5067980;28;20643;-28
2022/07/12 10:52:09;;;;;;;;;;;;;;;28.38;24.92;100321.47;5068390;28;20032;-28
2022/07/12 10:54:35;;;;;;;3.33;1.23;;;;;;;28.44;22.93;100314.66;5069498;28;19916;-38
2022/07/12 10:57:00;;;;;;;2.70;1.02;;;;;;;28.11;24.46;100311.00;5069475;28;20037;-29
2022/07/12 10:59:27;;;;;;;2.22;1.00;;;;;;;28.55;25.73;100317.03;5069416;28;20025;-29
2022/07/12 11:01:55;;;;;;;3.65;1.45;;;;;;;29.05;23.68;100308.72;5051217;28;20047;-30
2022/07/12 11:04:21;;;;;;;4.32;1.63;;;;;;;29.13;24.02;100300.75;5051168;28;20040;-27
2022/07/12 11:06:47;;;;;;;6.53;2.55;;;;;;;29.25;24.90;100301.56;5069438;28;20089;-31
2022/07/12 11:09:15;;;;;;;3.22;1.15;;;;;;;28.63;23.60;100305.19;5068105;28;20378;-29
2022/07/12 11:11:41;;;;;;;4.22;1.35;;;;;;;28.50;24.62;100307.03;5050203;28;20032;-30
2022/07/12 11:14:06;;;;;;;5.22;2.60;;;;;;;28.69;25.53;100298.38;5069395;28;20256;-31
2022/07/12 11:16:32;;;;;;;4.53;1.50;;;;;;;28.90;25.55;100292.06;5069197;28;20029;-28
2022/07/12 11:18:58;;;;;;;3.38;1.20;;;;;;;28.72;24.88;100303.16;5051115;28;20036;-28
2022/07/12 11:21:24;;;;;;;3.30;1.17;;;;;;;28.87;24.93;100298.19;5067680;28;20067;-28
2022/07/12 11:23:51;;;;;;;2.97;0.93;;;;;;;28.74;25.06;100295.41;5051185;28;20032;-28
2022/07/12 11:26:17;;;;;;;3.00;1.00;;;;;;;28.54;25.19;100280.56;5067852;28;20062;-32
2022/07/12 11:28:44;;;;;;;5.20;1.73;;;;;;;28.96;25.59;100291.50;5067464;28;20068;-29
2022/07/12 11:31:16;;;;;;;4.47;1.60;;;;;;;28.67;25.05;100311.63;5067596;28;20501;-28